createdAt,value
2023-02-19T00:00:54.322Z,6.92
2023-02-19T00:03:26.601Z,8.30
2023-02-19T00:05:58.723Z,8.35
2023-02-19T00:08:32.880Z,7.60
2023-02-19T00:11:10.945Z,8.10
2023-02-19T00:13:44.847Z,7.67
2023-02-19T00:16:19.888Z,6.50
2023-02-19T00:18:52.145Z,5.10
2023-02-19T00:21:24.848Z,8.03
2023-02-19T00:24:00.220Z,5.05
2023-02-19T00:26:32.321Z,7.22
2023-02-19T00:29:04.337Z,7.90
2023-02-19T00:31:37.142Z,8.00
2023-02-19T00:34:10.053Z,7.40
2023-02-19T00:36:43.505Z,8.57
2023-02-19T00:39:18.757Z,7.90
2023-02-19T00:41:51.845Z,7.30
2023-02-19T00:44:24.251Z,7.42
2023-02-19T00:46:56.226Z,5.95
2023-02-19T00:49:28.782Z,9.45
2023-02-19T00:52:00.762Z,7.72
2023-02-19T00:54:32.750Z,5.37
2023-02-19T00:57:06.458Z,8.05
2023-02-19T00:59:38.566Z,6.75
2023-02-19T01:02:10.586Z,9.25
2023-02-19T01:04:42.882Z,8.00
2023-02-19T01:07:14.895Z,6.92
2023-02-19T01:12:19.720Z,7.75
2023-02-19T01:14:52.118Z,8.03
2023-02-19T01:17:24.283Z,8.10
2023-02-19T01:19:56.589Z,7.80
2023-02-19T01:22:28.510Z,7.55
2023-02-19T01:25:00.642Z,7.90
2023-02-19T01:27:33.155Z,7.72
2023-02-19T01:30:05.440Z,8.53
2023-02-19T01:32:37.465Z,5.15
2023-02-19T01:35:10.291Z,7.47
2023-02-19T01:37:42.441Z,5.60
2023-02-19T01:40:14.502Z,6.67
2023-02-19T01:42:46.481Z,7.78
2023-02-19T01:45:29.828Z,8.28
2023-02-19T01:48:10.754Z,5.30
2023-02-19T01:50:54.688Z,5.80
2023-02-19T01:53:29.936Z,4.78
2023-02-19T01:56:03.706Z,6.95
2023-02-19T01:58:38.036Z,6.28
2023-02-19T02:01:11.321Z,7.85
2023-02-19T02:03:46.657Z,7.83
2023-02-19T02:06:27.201Z,5.12
2023-02-19T02:09:18.781Z,7.22
2023-02-19T02:11:53.331Z,7.60
2023-02-19T02:14:28.458Z,6.92
2023-02-19T02:17:24.202Z,7.87
2023-02-19T02:20:18.996Z,7.08
2023-02-19T02:22:59.388Z,6.75
2023-02-19T02:25:43.449Z,6.62
2023-02-19T02:28:24.268Z,4.60
2023-02-19T02:31:02.535Z,4.33
2023-02-19T02:33:46.498Z,6.45
2023-02-19T02:36:27.346Z,6.85
2023-02-19T02:39:04.912Z,3.52
2023-02-19T02:41:41.406Z,6.58
2023-02-19T02:44:15.188Z,7.60
2023-02-19T02:46:48.401Z,6.93
2023-02-19T02:49:22.973Z,5.03
2023-02-19T02:51:57.686Z,6.97
2023-02-19T02:54:50.756Z,5.25
2023-02-19T02:57:24.347Z,5.75
2023-02-19T03:02:32.521Z,6.95
2023-02-19T03:05:30.727Z,6.80
2023-02-19T03:08:11.660Z,6.53
2023-02-19T03:10:47.592Z,6.87
2023-02-19T03:13:40.274Z,5.22
2023-02-19T03:16:47.887Z,4.97
2023-02-19T03:19:22.967Z,6.20
2023-02-19T03:22:10.900Z,7.85
2023-02-19T03:25:03.461Z,5.97
2023-02-19T03:27:37.277Z,7.08
2023-02-19T03:30:18.558Z,6.83
2023-02-19T03:33:02.153Z,7.62
2023-02-19T03:35:39.747Z,5.78
2023-02-19T03:38:22.439Z,5.58
2023-02-19T03:41:24.836Z,5.90
2023-02-19T03:44:15.734Z,4.95
2023-02-19T03:47:01.210Z,7.25
2023-02-19T03:49:51.147Z,7.28
2023-02-19T03:52:45.766Z,4.85
2023-02-19T03:55:26.736Z,4.15
2023-02-19T03:58:01.623Z,5.45
2023-02-19T04:00:37.089Z,6.45
2023-02-19T04:03:31.832Z,7.03
2023-02-19T04:06:08.030Z,3.67
2023-02-19T04:08:43.218Z,6.97
2023-02-19T04:11:17.889Z,7.15
2023-02-19T04:14:07.801Z,6.25
2023-02-19T04:16:43.210Z,5.60
2023-02-19T04:19:18.131Z,8.25
2023-02-19T04:21:53.232Z,5.53
2023-02-19T04:24:28.477Z,8.48
2023-02-19T04:27:00.844Z,4.45
2023-02-19T04:29:32.953Z,8.23
2023-02-19T04:32:05.307Z,7.47
2023-02-19T04:34:37.377Z,8.98
2023-02-19T04:37:27.148Z,7.97
2023-02-19T04:39:59.092Z,8.48
2023-02-19T04:42:32.716Z,8.93
2023-02-19T04:45:04.859Z,7.28
2023-02-19T04:47:36.796Z,4.85
2023-02-19T04:50:09.046Z,6.80
2023-02-19T04:52:41.430Z,7.75
2023-02-19T04:55:14.203Z,6.95
2023-02-19T04:57:46.109Z,9.63
2023-02-19T05:00:18.487Z,4.75
2023-02-19T05:02:51.072Z,7.90
2023-02-19T05:05:23.323Z,6.03
2023-02-19T05:07:55.389Z,5.53
2023-02-19T05:10:27.336Z,8.73
2023-02-19T05:13:00.152Z,8.10
2023-02-19T05:15:33.451Z,7.92
2023-02-19T05:18:06.162Z,7.72
2023-02-19T05:20:39.110Z,7.87
2023-02-19T05:23:11.347Z,7.90
2023-02-19T05:25:43.992Z,4.80
2023-02-19T05:28:19.616Z,3.90
2023-02-19T05:30:54.133Z,7.83
2023-02-19T05:33:27.919Z,7.80
2023-02-19T05:36:00.490Z,5.40
2023-02-19T05:38:32.538Z,8.48
2023-02-19T05:41:17.373Z,6.90
2023-02-19T05:43:50.583Z,7.20
2023-02-19T05:46:25.294Z,7.78
2023-02-19T05:48:58.493Z,7.35
2023-02-19T05:51:31.116Z,7.20
2023-02-19T05:54:03.642Z,8.30
2023-02-19T05:56:41.424Z,5.67
2023-02-19T05:59:22.088Z,6.50
2023-02-19T06:01:56.129Z,6.70
2023-02-19T06:06:59.281Z,6.20
2023-02-19T06:09:32.605Z,6.67
2023-02-19T06:12:04.588Z,4.47
2023-02-19T06:14:36.798Z,5.75
2023-02-19T06:17:08.938Z,6.20
2023-02-19T06:19:41.801Z,6.80
2023-02-19T06:22:15.446Z,6.33
2023-02-19T06:24:48.349Z,6.78
2023-02-19T06:27:21.497Z,6.47
2023-02-19T06:29:54.250Z,6.12
2023-02-19T06:32:26.806Z,7.10
2023-02-19T06:34:58.969Z,6.97
2023-02-19T06:37:31.772Z,5.95
2023-02-19T06:42:36.525Z,6.62
2023-02-19T06:45:09.409Z,6.53
2023-02-19T06:47:42.377Z,6.87
2023-02-19T06:50:17.115Z,3.58
2023-02-19T06:52:49.831Z,6.35
2023-02-19T06:55:21.781Z,7.22
2023-02-19T06:57:54.103Z,6.90
2023-02-19T07:00:27.372Z,5.40
2023-02-19T07:03:00.537Z,6.17
2023-02-19T07:05:33.035Z,5.85
2023-02-19T07:08:06.075Z,6.47
2023-02-19T07:10:38.543Z,6.08
2023-02-19T07:13:10.716Z,6.47
2023-02-19T07:15:42.953Z,5.78
2023-02-19T07:18:15.265Z,3.47
2023-02-19T07:20:47.113Z,5.03
2023-02-19T07:23:19.291Z,6.05
2023-02-19T07:25:51.359Z,6.10
2023-02-19T07:28:23.569Z,6.12
2023-02-19T07:30:57.646Z,4.30
2023-02-19T07:33:29.825Z,5.75
2023-02-19T07:36:02.338Z,5.62
2023-02-19T07:38:34.646Z,4.92
2023-02-19T07:41:08.504Z,6.12
2023-02-19T07:46:14.699Z,5.37
2023-02-19T07:48:46.897Z,4.90
2023-02-19T07:51:21.279Z,5.50
2023-02-19T07:53:53.964Z,5.58
2023-02-19T07:56:26.185Z,4.22
2023-02-19T07:59:01.182Z,6.12
2023-02-19T08:01:51.734Z,5.55
2023-02-19T08:04:24.197Z,5.58
2023-02-19T08:06:57.295Z,5.58
2023-02-19T08:09:29.508Z,5.92
2023-02-19T08:12:20.269Z,4.97
2023-02-19T08:14:52.702Z,6.03
2023-02-19T08:17:26.260Z,4.17
2023-02-19T08:19:58.848Z,5.45
2023-02-19T08:22:32.868Z,6.47
2023-02-19T08:25:05.858Z,6.37
2023-02-19T08:27:38.613Z,5.75
2023-02-19T08:30:12.174Z,5.35
2023-02-19T08:35:17.610Z,6.12
2023-02-19T08:37:50.668Z,4.78
2023-02-19T08:40:23.559Z,5.42
2023-02-19T08:42:56.757Z,7.22
2023-02-19T08:45:29.594Z,7.87
2023-02-19T08:48:02.103Z,4.25
2023-02-19T08:50:35.824Z,5.03
2023-02-19T08:53:09.659Z,6.78
2023-02-19T08:55:42.527Z,7.07
2023-02-19T08:58:15.477Z,7.25
2023-02-19T09:00:47.808Z,7.25
2023-02-19T09:03:20.118Z,5.70
2023-02-19T09:05:52.683Z,6.65
2023-02-19T09:08:25.839Z,6.28
2023-02-19T09:11:07.721Z,7.05
2023-02-19T09:13:41.089Z,7.37
2023-02-19T09:16:13.940Z,6.85
2023-02-19T09:18:46.995Z,6.27
2023-02-19T09:21:19.929Z,7.08
2023-02-19T09:23:52.255Z,6.03
2023-02-19T09:26:25.880Z,7.00
2023-02-19T09:28:58.309Z,4.62
2023-02-19T09:31:30.668Z,7.47
2023-02-19T09:34:03.534Z,5.47
2023-02-19T09:36:36.776Z,7.12
2023-02-19T09:39:11.395Z,7.45
2023-02-19T09:41:56.084Z,6.67
2023-02-19T09:44:34.198Z,7.20
2023-02-19T09:47:09.855Z,5.03
2023-02-19T09:49:46.941Z,6.87
2023-02-19T09:52:34.855Z,5.37
2023-02-19T09:55:16.183Z,8.08
2023-02-19T09:57:49.880Z,7.53
2023-02-19T10:00:27.567Z,6.60
2023-02-19T10:03:05.518Z,7.00
2023-02-19T10:05:40.103Z,6.67
2023-02-19T10:08:15.864Z,10.35
2023-02-19T10:10:48.075Z,8.43
2023-02-19T10:13:23.300Z,8.35
2023-02-19T10:16:01.138Z,8.25
2023-02-19T10:18:43.895Z,7.78
2023-02-19T10:21:20.304Z,6.83
2023-02-19T10:23:58.500Z,6.53
2023-02-19T10:26:32.405Z,6.20
2023-02-19T10:29:05.912Z,7.90
2023-02-19T10:31:38.328Z,7.33
2023-02-19T10:34:13.608Z,4.92
2023-02-19T10:36:47.568Z,5.62
2023-02-19T10:39:39.650Z,8.58
2023-02-19T10:42:23.591Z,7.47
2023-02-19T10:44:59.570Z,8.75
2023-02-19T10:47:34.006Z,7.28
2023-02-19T10:50:06.536Z,7.42
2023-02-19T10:52:39.058Z,7.33
2023-02-19T10:55:32.901Z,7.03
2023-02-19T10:58:24.710Z,6.55
2023-02-19T11:01:22.822Z,7.42
2023-02-19T11:04:15.833Z,7.37
2023-02-19T11:06:49.051Z,7.05
2023-02-19T11:09:42.108Z,5.07
2023-02-19T11:12:17.466Z,7.42
2023-02-19T11:14:50.089Z,8.13
2023-02-19T11:17:31.692Z,7.47
2023-02-19T11:20:09.404Z,7.10
2023-02-19T11:22:47.825Z,7.92
2023-02-19T11:25:24.315Z,7.50
2023-02-19T11:28:32.052Z,7.65
2023-02-19T11:31:25.460Z,9.60
2023-02-19T11:34:02.974Z,7.42
2023-02-19T11:36:37.194Z,7.00
2023-02-19T11:39:18.865Z,7.17
2023-02-19T11:42:00.778Z,7.28
2023-02-19T11:44:55.396Z,7.20
2023-02-19T11:47:48.914Z,7.83
2023-02-19T11:50:58.403Z,7.45
2023-02-19T11:53:38.885Z,6.47
2023-02-19T11:56:26.101Z,5.22
2023-02-19T11:59:19.327Z,7.92
2023-02-19T12:02:11.145Z,7.10
2023-02-19T12:04:58.576Z,8.03
2023-02-19T12:08:06.506Z,8.25
2023-02-19T12:10:53.571Z,7.00
2023-02-19T12:13:34.521Z,7.12
2023-02-19T12:16:15.468Z,7.80
2023-02-19T12:19:02.036Z,7.40
2023-02-19T12:21:46.004Z,6.75
2023-02-19T12:24:35.812Z,7.28
2023-02-19T12:27:19.535Z,6.53
2023-02-19T12:30:06.111Z,8.05
2023-02-19T12:32:44.349Z,10.82
2023-02-19T12:35:25.425Z,6.92
2023-02-19T12:38:09.564Z,7.20
2023-02-19T12:40:56.383Z,7.60
2023-02-19T12:43:30.264Z,8.03
2023-02-19T12:46:14.712Z,8.03
2023-02-19T12:49:02.697Z,8.68
2023-02-19T12:51:54.320Z,7.80
2023-02-19T12:54:32.247Z,7.45
2023-02-19T12:57:07.359Z,8.20
2023-02-19T12:59:51.564Z,8.43
2023-02-19T13:02:44.613Z,8.20
2023-02-19T13:05:28.597Z,8.13
2023-02-19T13:08:07.053Z,7.47
2023-02-19T13:10:50.833Z,4.33
2023-02-19T13:13:28.783Z,9.20
2023-02-19T13:16:10.616Z,8.10
2023-02-19T13:18:51.705Z,7.58
2023-02-19T13:21:43.879Z,7.25
2023-02-19T13:24:25.451Z,8.98
2023-02-19T13:27:03.856Z,6.83
2023-02-19T13:29:52.850Z,9.28
2023-02-19T13:32:46.758Z,6.28
2023-02-19T13:35:30.453Z,7.92
2023-02-19T13:40:40.342Z,7.60
2023-02-19T13:43:27.765Z,4.22
2023-02-19T13:46:02.761Z,7.55
2023-02-19T13:48:37.698Z,9.03
2023-02-19T13:51:25.560Z,9.38
2023-02-19T13:54:02.420Z,9.60
2023-02-19T13:56:37.676Z,9.30
2023-02-19T13:59:24.989Z,8.28
2023-02-19T14:02:01.008Z,8.43
2023-02-19T14:04:51.953Z,7.25
2023-02-19T14:07:30.151Z,7.47
2023-02-19T14:10:03.317Z,6.65
2023-02-19T14:12:37.602Z,4.80
2023-02-19T14:15:27.745Z,7.20
2023-02-19T14:18:00.273Z,7.47
2023-02-19T14:20:44.215Z,8.25
2023-02-19T14:23:19.480Z,4.95
2023-02-19T14:25:57.497Z,8.75
2023-02-19T14:28:38.413Z,7.50
2023-02-19T14:31:22.146Z,7.40
2023-02-19T14:34:06.938Z,8.03
2023-02-19T14:36:54.114Z,9.20
2023-02-19T14:39:29.269Z,8.78
2023-02-19T14:42:09.709Z,7.60
2023-02-19T14:44:47.313Z,6.42
2023-02-19T14:47:25.412Z,8.55
2023-02-19T14:50:12.338Z,6.97
2023-02-19T14:52:47.682Z,7.70
2023-02-19T14:55:38.056Z,5.85
2023-02-19T14:58:18.701Z,7.80
2023-02-19T15:00:51.275Z,7.83
2023-02-19T15:03:37.927Z,8.28
2023-02-19T15:06:16.504Z,8.98
2023-02-19T15:08:52.735Z,7.40
2023-02-19T15:11:28.423Z,8.25
2023-02-19T15:14:07.902Z,7.78
2023-02-19T15:16:41.850Z,8.18
2023-02-19T15:19:18.342Z,8.40
2023-02-19T15:21:52.255Z,8.55
2023-02-19T15:24:25.475Z,6.47
2023-02-19T15:26:57.716Z,7.47
2023-02-19T15:29:30.687Z,7.67
2023-02-19T15:32:06.795Z,8.15
2023-02-19T15:34:41.427Z,8.15
2023-02-19T15:37:15.790Z,8.93
2023-02-19T15:39:51.227Z,7.92
2023-02-19T15:42:26.719Z,8.08
2023-02-19T15:45:19.482Z,8.58
2023-02-19T15:47:57.500Z,7.08
2023-02-19T15:50:32.714Z,7.15
2023-02-19T15:53:17.105Z,8.70
2023-02-19T15:56:10.363Z,8.75
2023-02-19T15:58:45.804Z,8.93
2023-02-19T16:01:32.651Z,9.43
2023-02-19T16:04:07.364Z,9.68
2023-02-19T16:07:00.402Z,8.90
2023-02-19T16:09:40.521Z,9.25
2023-02-19T16:12:27.511Z,8.35
2023-02-19T16:14:59.917Z,9.38
2023-02-19T16:17:33.540Z,9.33
2023-02-19T16:20:05.834Z,9.83
2023-02-19T16:22:40.832Z,10.30
2023-02-19T16:25:24.689Z,9.63
2023-02-19T16:27:57.218Z,8.98
2023-02-19T16:30:34.135Z,9.48
2023-02-19T16:33:33.610Z,10.28
2023-02-19T16:36:23.566Z,9.28
2023-02-19T16:39:19.089Z,8.35
2023-02-19T16:41:54.345Z,10.08
2023-02-19T16:44:31.552Z,10.20
2023-02-19T16:47:15.260Z,10.15
2023-02-19T16:49:47.655Z,9.68
2023-02-19T16:52:19.685Z,10.05
2023-02-19T16:54:51.882Z,9.85
2023-02-19T16:57:24.018Z,9.33
2023-02-19T16:59:55.976Z,9.73
2023-02-19T17:02:28.077Z,9.90
2023-02-19T17:05:00.675Z,9.38
2023-02-19T17:07:32.953Z,6.00
2023-02-19T17:10:05.209Z,11.15
2023-02-19T17:12:37.337Z,10.38
2023-02-19T17:15:10.872Z,9.75
2023-02-19T17:17:44.803Z,8.20
2023-02-19T17:20:26.559Z,10.53
2023-02-19T17:22:59.089Z,10.18
2023-02-19T17:25:31.565Z,9.60
2023-02-19T17:28:03.593Z,9.75
2023-02-19T17:30:37.748Z,10.88
2023-02-19T17:35:42.327Z,10.80
2023-02-19T17:38:15.810Z,9.90
2023-02-19T17:40:48.024Z,7.92
2023-02-19T17:43:20.359Z,8.53
2023-02-19T17:45:52.875Z,8.95
2023-02-19T17:48:25.250Z,10.00
2023-02-19T17:50:58.190Z,4.37
2023-02-19T17:53:30.535Z,9.93
2023-02-19T17:56:02.747Z,10.95
2023-02-19T17:58:37.196Z,9.98
2023-02-19T18:01:09.523Z,11.15
2023-02-19T18:03:42.009Z,10.55
2023-02-19T18:06:14.054Z,9.25
2023-02-19T18:08:51.558Z,10.35
2023-02-19T18:11:24.074Z,11.35
2023-02-19T18:13:56.362Z,9.13
2023-02-19T18:16:29.830Z,10.53
2023-02-19T18:19:02.405Z,10.65
2023-02-19T18:21:34.986Z,10.67
2023-02-19T18:24:07.551Z,11.80
2023-02-19T18:26:41.148Z,11.03
2023-02-19T18:29:13.798Z,11.43
2023-02-19T18:31:45.988Z,11.38
2023-02-19T18:34:19.832Z,10.93
2023-02-19T18:39:23.344Z,11.20
2023-02-19T18:41:55.455Z,11.70
2023-02-19T18:44:27.626Z,9.85
2023-02-19T18:46:59.480Z,11.18
2023-02-19T18:49:32.411Z,10.98
2023-02-19T18:52:04.515Z,12.35
2023-02-19T18:54:37.144Z,10.75
2023-02-19T18:57:09.076Z,11.30
2023-02-19T18:59:45.170Z,11.38
2023-02-19T19:02:17.837Z,11.75
2023-02-19T19:04:52.124Z,12.15
2023-02-19T19:07:24.108Z,12.37
2023-02-19T19:09:56.183Z,11.53
2023-02-19T19:12:28.198Z,11.90
2023-02-19T19:15:00.160Z,11.50
2023-02-19T19:17:33.685Z,8.48
2023-02-19T19:20:06.624Z,11.90
2023-02-19T19:22:38.656Z,12.43
2023-02-19T19:25:11.066Z,12.23
2023-02-19T19:27:43.002Z,11.40
2023-02-19T19:30:15.723Z,11.70
2023-02-19T19:32:51.877Z,12.70
2023-02-19T19:35:24.621Z,12.07
2023-02-19T19:37:56.876Z,12.95
2023-02-19T19:40:28.776Z,13.05
2023-02-19T19:43:00.799Z,11.90
2023-02-19T19:45:32.629Z,12.93
2023-02-19T19:48:04.833Z,11.38
2023-02-19T19:50:36.785Z,11.22
2023-02-19T19:53:08.828Z,10.65
2023-02-19T19:55:41.092Z,11.70
2023-02-19T19:58:13.045Z,12.68
2023-02-19T20:00:45.330Z,12.35
2023-02-19T20:03:17.217Z,12.05
2023-02-19T20:05:53.242Z,11.90
2023-02-19T20:08:25.306Z,12.07
2023-02-19T20:10:57.581Z,12.58
2023-02-19T20:13:30.794Z,12.63
2023-02-19T20:16:03.218Z,12.17
2023-02-19T20:18:36.063Z,12.40
2023-02-19T20:21:10.809Z,12.25
2023-02-19T20:23:42.931Z,12.60
2023-02-19T20:26:14.723Z,13.18
2023-02-19T20:28:47.041Z,12.98
2023-02-19T20:31:19.237Z,12.80
2023-02-19T20:33:51.911Z,13.25
2023-02-19T20:36:26.261Z,14.37
2023-02-19T20:41:29.362Z,12.98
2023-02-19T20:44:01.482Z,13.15
2023-02-19T20:46:33.599Z,13.10
2023-02-19T20:49:05.744Z,14.80
2023-02-19T20:51:53.339Z,13.08
2023-02-19T20:54:28.051Z,14.47
2023-02-19T20:57:02.568Z,14.20
2023-02-19T20:59:38.902Z,13.78
2023-02-19T21:02:16.581Z,13.85
2023-02-19T21:04:48.811Z,14.07
2023-02-19T21:07:20.846Z,13.90
2023-02-19T21:09:53.010Z,14.07
2023-02-19T21:12:25.158Z,14.20
2023-02-19T21:14:57.214Z,13.30
2023-02-19T21:17:29.013Z,13.50
2023-02-19T21:20:01.015Z,13.28
2023-02-19T21:22:33.533Z,12.13
2023-02-19T21:25:05.865Z,13.18
2023-02-19T21:27:38.773Z,12.50
2023-02-19T21:30:11.011Z,12.45
2023-02-19T21:32:43.060Z,13.58
2023-02-19T21:35:15.283Z,12.68
2023-02-19T21:37:47.541Z,13.18
2023-02-19T21:40:21.058Z,12.15
2023-02-19T21:42:53.056Z,13.35
2023-02-19T21:45:25.209Z,12.23
2023-02-19T21:47:57.299Z,12.90
2023-02-19T21:50:29.454Z,12.68
2023-02-19T21:53:01.451Z,13.60
2023-02-19T21:55:33.716Z,13.55
2023-02-19T21:58:05.990Z,14.63
2023-02-19T22:00:38.198Z,13.98
2023-02-19T22:03:13.152Z,14.30
2023-02-19T22:05:45.918Z,13.90
2023-02-19T22:08:18.193Z,14.87
2023-02-19T22:10:50.151Z,13.40
2023-02-19T22:13:22.098Z,14.00
2023-02-19T22:15:54.094Z,14.55
2023-02-19T22:18:26.383Z,14.13
2023-02-19T22:20:58.486Z,13.78
2023-02-19T22:23:30.773Z,14.47
2023-02-19T22:26:02.782Z,13.48
2023-02-19T22:28:34.851Z,15.10
2023-02-19T22:31:08.761Z,15.20
2023-02-19T22:36:22.907Z,15.13
2023-02-19T22:38:55.339Z,16.10
2023-02-19T22:41:27.760Z,15.60
2023-02-19T22:44:00.453Z,15.65
2023-02-19T22:46:32.535Z,16.87
2023-02-19T22:49:07.611Z,16.45
2023-02-19T22:51:44.177Z,16.67
2023-02-19T22:54:17.746Z,18.27
2023-02-19T22:56:49.633Z,18.20
2023-02-19T22:59:22.039Z,19.00
2023-02-19T23:01:55.117Z,18.48
2023-02-19T23:04:27.703Z,17.98
2023-02-19T23:06:59.846Z,18.52
2023-02-19T23:09:31.791Z,17.80
2023-02-19T23:12:07.155Z,17.50
2023-02-19T23:14:39.840Z,16.95
2023-02-19T23:17:12.010Z,17.70
2023-02-19T23:19:43.912Z,15.80
2023-02-19T23:22:16.455Z,16.52
2023-02-19T23:24:48.528Z,16.20
2023-02-19T23:27:20.714Z,16.17
2023-02-19T23:29:52.764Z,16.67
2023-02-19T23:32:24.598Z,16.27
2023-02-19T23:34:56.687Z,17.02
2023-02-19T23:37:28.848Z,16.00
2023-02-19T23:40:01.222Z,15.63
2023-02-19T23:42:33.446Z,16.42
2023-02-19T23:45:05.637Z,17.60
2023-02-19T23:47:37.557Z,15.65
2023-02-19T23:50:10.126Z,15.68
2023-02-19T23:52:42.334Z,15.55
2023-02-19T23:55:14.374Z,17.07
2023-02-19T23:57:46.411Z,15.93
